Time;durP1;ratioP1;P1;durP2;ratioP2;P2;SDS_P1;SDS_P2;PMS_P1;PMS_P2;Temp;Humidity;BMP_temperature;BMP_pressure;BME280_temperature;BME280_humidity;BME280_pressure;Samples;Min_cycle;Max_cycle;Signal;HPM_P1;HPM_P2
2022/02/05 00:00:32;;;;;;;47.33;25.73;;;;;;;;;;4450172;32;20494;-85
2022/02/05 00:43:15;;;;;;;76.07;39.87;;;;;;;;;;4452048;32;20239;-84
2022/02/05 00:45:44;;;;;;;84.20;38.03;;;;;;;;;;4466035;32;20185;-83
2022/02/05 00:48:11;;;;;;;69.47;36.70;;;;;;;;;;4464714;32;20217;-84
2022/02/05 00:50:41;;;;;;;83.93;42.03;;;;;;;;;;4464287;32;20184;-84
2022/02/05 00:55:36;;;;;;;92.80;44.83;;;;;;;;;;4457143;32;20196;-85
2022/02/05 00:58:03;;;;;;;96.03;50.20;;;;;;;;;;4464032;32;20345;-85
2022/02/05 01:00:30;;;;;;;99.40;48.40;;;;;;;;;;4463454;32;20359;-85
2022/02/05 01:02:57;;;;;;;108.20;50.20;;;;;;;;;;4448061;32;20244;-84
2022/02/05 01:05:22;;;;;;;97.77;47.00;;;;;;;;;;4445164;32;20303;-86
2022/02/05 01:07:48;;;;;;;98.70;46.40;;;;;;;;;;4446622;32;20287;-86
2022/02/05 01:10:14;;;;;;;105.93;50.53;;;;;;;;;;4450009;32;20342;-84
2022/02/05 01:12:44;;;;;;;119.00;52.00;;;;;;;;;;4449525;32;20545;-86
2022/02/05 01:15:11;;;;;;;105.70;51.20;;;;;;;;;;4449461;32;20227;-85
2022/02/05 01:17:45;;;;;;;92.03;47.33;;;;;;;;;;4449677;32;20256;-87
2022/02/05 01:22:42;;;;;;;92.77;45.73;;;;;;;;;;4449106;32;20673;-86
2022/02/05 01:25:08;;;;;;;100.70;46.43;;;;;;;;;;4449371;32;20355;-83
2022/02/05 01:27:45;;;;;;;101.13;45.77;;;;;;;;;;4429096;32;20276;-85
2022/02/05 01:32:52;;;;;;;91.33;41.20;;;;;;;;;;4433974;32;20237;-85
2022/02/05 01:35:37;;;;;;;85.90;41.10;;;;;;;;;;4449485;32;20379;-87
2022/02/05 01:49:35;;;;;;;88.43;42.00;;;;;;;;;;4451554;32;20246;-87
2022/02/05 01:52:12;;;;;;;113.10;50.07;;;;;;;;;;4451286;32;20229;-85
2022/02/05 01:54:52;;;;;;;148.37;59.43;;;;;;;;;;4451886;32;20307;-86
2022/02/05 01:57:42;;;;;;;126.00;57.30;;;;;;;;;;4449698;32;20303;-85
2022/02/05 02:05:51;;;;;;;73.87;34.13;;;;;;;;;;4435893;32;20242;-84
2022/02/05 02:16:42;;;;;;;96.43;42.20;;;;;;;;;;4451392;32;20286;-86
2022/02/05 02:21:52;;;;;;;101.77;47.30;;;;;;;;;;4450939;32;20282;-84
2022/02/05 02:29:50;;;;;;;54.50;26.67;;;;;;;;;;4436281;32;20319;-85
2022/02/05 02:32:16;;;;;;;58.00;25.63;;;;;;;;;;4436018;32;20224;-86
2022/02/05 02:34:47;;;;;;;71.90;32.73;;;;;;;;;;4435586;32;20672;-85
2022/02/05 02:37:18;;;;;;;113.10;39.90;;;;;;;;;;4436135;32;20243;-85
2022/02/05 02:40:38;;;;;;;140.20;52.97;;;;;;;;;;4435858;32;20193;-85
2022/02/05 02:42:29;;;;;;;158.47;64.60;;;;;;;;;;4427780;32;20233;-86
2022/02/05 02:44:55;;;;;;;172.50;65.23;;;;;;;;;;4434525;32;20672;-84
2022/02/05 02:47:20;;;;;;;154.73;62.63;;;;;;;;;;4435724;32;20819;-84
2022/02/05 02:49:58;;;;;;;143.40;58.57;;;;;;;;;;4435699;32;20201;-85
2022/02/05 02:57:57;;;;;;;68.00;30.13;;;;;;;;;;4435383;32;20609;-85
2022/02/05 03:00:23;;;;;;;70.17;32.07;;;;;;;;;;4435467;32;20252;-84
2022/02/05 03:02:48;;;;;;;73.33;34.03;;;;;;;;;;4434962;32;20292;-85
2022/02/05 03:05:14;;;;;;;66.67;28.13;;;;;;;;;;4434527;32;20358;-84
2022/02/05 03:07:39;;;;;;;48.17;24.47;;;;;;;;;;4435248;32;20675;-84
2022/02/05 03:10:05;;;;;;;55.47;28.57;;;;;;;;;;4435481;32;20263;-84
2022/02/05 03:12:31;;;;;;;62.03;31.60;;;;;;;;;;4435238;32;20221;-84
2022/02/05 03:14:58;;;;;;;76.73;40.73;;;;;;;;;;4435020;32;20236;-86
2022/02/05 03:17:26;;;;;;;106.33;50.90;;;;;;;;;;4421048;32;20224;-87
2022/02/05 03:19:55;;;;;;;111.27;52.03;;;;;;;;;;4434857;32;20210;-86
2022/02/05 03:22:22;;;;;;;102.67;51.07;;;;;;;;;;4434115;32;20341;-86
2022/02/05 03:24:48;;;;;;;132.13;49.47;;;;;;;;;;4434902;32;20609;-85
2022/02/05 03:27:15;;;;;;;116.57;44.87;;;;;;;;;;4438962;32;20215;-84
2022/02/05 03:29:45;;;;;;;117.90;41.77;;;;;;;;;;4450009;32;20229;-84
2022/02/05 03:32:10;;;;;;;112.47;43.83;;;;;;;;;;4450319;32;20342;-85
2022/02/05 03:34:36;;;;;;;113.70;43.53;;;;;;;;;;4450862;32;20233;-85
2022/02/05 03:37:03;;;;;;;92.17;41.57;;;;;;;;;;4450231;32;20208;-85
2022/02/05 03:39:29;;;;;;;105.77;43.60;;;;;;;;;;4449933;32;20262;-85
2022/02/05 03:41:55;;;;;;;94.83;43.63;;;;;;;;;;4450039;32;20205;-86
2022/02/05 03:44:20;;;;;;;96.27;42.20;;;;;;;;;;4449735;32;20778;-85
2022/02/05 03:46:48;;;;;;;79.63;39.10;;;;;;;;;;4449617;32;20224;-85
2022/02/05 03:49:17;;;;;;;79.90;39.87;;;;;;;;;;4422955;32;20228;-86
2022/02/05 03:51:42;;;;;;;88.20;39.17;;;;;;;;;;4449669;32;20275;-86
2022/02/05 03:54:09;;;;;;;95.00;40.13;;;;;;;;;;4450179;32;20621;-85
2022/02/05 03:56:34;;;;;;;79.57;38.27;;;;;;;;;;4436401;32;20305;-84
2022/02/05 03:59:00;;;;;;;71.70;34.47;;;;;;;;;;4449979;32;20292;-84
2022/02/05 04:01:25;;;;;;;91.23;44.47;;;;;;;;;;4450115;32;20580;-86
2022/02/05 04:03:50;;;;;;;101.10;47.20;;;;;;;;;;4442734;32;20303;-89
2022/02/05 04:06:16;;;;;;;114.53;50.73;;;;;;;;;;4449188;32;20275;-88
2022/02/05 04:08:42;;;;;;;102.40;49.80;;;;;;;;;;4449308;32;20692;-82
2022/02/05 04:11:26;;;;;;;97.53;44.70;;;;;;;;;;4434730;32;20216;-88
2022/02/05 04:16:37;;;;;;;77.23;37.90;;;;;;;;;;4449421;32;20603;-89
2022/02/05 04:19:02;;;;;;;101.87;46.03;;;;;;;;;;4449443;32;20252;-87
2022/02/05 04:21:29;;;;;;;87.27;43.33;;;;;;;;;;4449203;32;20672;-90
2022/02/05 04:23:55;;;;;;;94.83;42.10;;;;;;;;;;4435412;32;20223;-83
2022/02/05 04:26:21;;;;;;;95.27;42.47;;;;;;;;;;4449653;32;20639;-84
2022/02/05 04:28:47;;;;;;;97.00;43.67;;;;;;;;;;4435276;32;20244;-87
2022/02/05 04:31:13;;;;;;;80.87;38.00;;;;;;;;;;4433835;32;20232;-87
2022/02/05 04:33:39;;;;;;;79.93;38.77;;;;;;;;;;4440087;32;20326;-87
2022/02/05 04:36:05;;;;;;;65.90;33.43;;;;;;;;;;4450273;32;20223;-88
2022/02/05 04:38:32;;;;;;;85.57;37.10;;;;;;;;;;4449011;32;20233;-85
2022/02/05 04:41:04;;;;;;;80.47;38.70;;;;;;;;;;4449356;32;20728;-89
2022/02/05 04:49:09;;;;;;;92.83;41.63;;;;;;;;;;4449299;32;20255;-86
2022/02/05 05:04:44;;;;;;;119.10;59.80;;;;;;;;;;4445081;32;20216;-85
2022/02/05 05:20:51;;;;;;;93.93;49.03;;;;;;;;;;4437195;32;20245;-85
2022/02/05 05:23:17;;;;;;;96.60;50.03;;;;;;;;;;4436614;32;20229;-84
2022/02/05 05:25:42;;;;;;;107.47;51.57;;;;;;;;;;4436668;32;20209;-85
2022/02/05 05:28:08;;;;;;;123.03;53.77;;;;;;;;;;4437152;32;20324;-87
2022/02/05 05:30:33;;;;;;;110.30;49.43;;;;;;;;;;4436818;32;20601;-85
2022/02/05 05:32:59;;;;;;;107.90;52.17;;;;;;;;;;4438652;32;20363;-85
2022/02/05 05:35:24;;;;;;;108.70;57.03;;;;;;;;;;4452645;32;20256;-83
2022/02/05 05:37:51;;;;;;;190.07;84.20;;;;;;;;;;4452166;32;20220;-85
2022/02/05 05:40:16;;;;;;;169.60;75.67;;;;;;;;;;4438313;32;20197;-85
2022/02/05 05:42:47;;;;;;;152.07;68.67;;;;;;;;;;4453708;32;20276;-85
2022/02/05 05:47:56;;;;;;;110.07;55.00;;;;;;;;;;4457942;32;20212;-86
2022/02/05 05:50:58;;;;;;;138.37;58.27;;;;;;;;;;4453675;32;20189;-83
2022/02/05 05:53:14;;;;;;;97.17;52.40;;;;;;;;;;4462765;32;20384;-83
2022/02/05 05:55:43;;;;;;;107.83;53.37;;;;;;;;;;4464520;32;20180;-84
2022/02/05 05:58:10;;;;;;;107.63;54.17;;;;;;;;;;4462970;32;20370;-87
2022/02/05 06:00:36;;;;;;;108.27;52.03;;;;;;;;;;4461663;32;20226;-83
2022/02/05 06:03:03;;;;;;;121.23;58.10;;;;;;;;;;4461245;32;20241;-82
2022/02/05 06:05:29;;;;;;;122.17;57.67;;;;;;;;;;4459009;32;20327;-84
2022/02/05 06:07:54;;;;;;;118.33;60.43;;;;;;;;;;4463018;32;20271;-85
2022/02/05 06:10:21;;;;;;;126.93;62.90;;;;;;;;;;4458898;32;20263;-84
2022/02/05 06:12:51;;;;;;;129.50;65.13;;;;;;;;;;4457167;32;20243;-85
2022/02/05 06:15:18;;;;;;;145.37;68.77;;;;;;;;;;4452285;32;20205;-87
2022/02/05 06:17:43;;;;;;;173.97;85.67;;;;;;;;;;4451106;32;20220;-89
2022/02/05 06:20:09;;;;;;;146.20;69.87;;;;;;;;;;4451435;32;20503;-86
2022/02/05 06:22:37;;;;;;;129.17;65.17;;;;;;;;;;4451259;32;20251;-88
2022/02/05 06:25:03;;;;;;;140.30;69.00;;;;;;;;;;4451337;32;20200;-87
2022/02/05 06:27:28;;;;;;;140.93;66.33;;;;;;;;;;4445542;32;20390;-88
2022/02/05 06:29:54;;;;;;;150.73;74.83;;;;;;;;;;4435329;32;20621;-86
2022/02/05 06:32:19;;;;;;;209.20;99.83;;;;;;;;;;4421641;32;20778;-85
2022/02/05 06:34:45;;;;;;;213.00;101.60;;;;;;;;;;4449067;32;20310;-87
2022/02/05 06:37:11;;;;;;;189.30;86.43;;;;;;;;;;4450588;32;20217;-86
2022/02/05 06:39:37;;;;;;;172.20;85.50;;;;;;;;;;4437032;32;20712;-87
2022/02/05 06:42:03;;;;;;;135.43;72.30;;;;;;;;;;4451062;32;20197;-87
2022/02/05 06:44:28;;;;;;;153.67;74.73;;;;;;;;;;4450357;32;20803;-84
2022/02/05 06:46:54;;;;;;;152.20;76.57;;;;;;;;;;4450432;32;20216;-87
2022/02/05 06:49:25;;;;;;;215.07;93.40;;;;;;;;;;4447270;32;20800;-88
2022/02/05 06:51:51;;;;;;;155.93;72.97;;;;;;;;;;4437383;32;20511;-83
2022/02/05 06:54:17;;;;;;;169.77;76.03;;;;;;;;;;4436527;32;20228;-84
2022/02/05 06:56:43;;;;;;;180.37;76.77;;;;;;;;;;4450620;32;20293;-86
2022/02/05 06:59:08;;;;;;;134.57;64.10;;;;;;;;;;4450519;32;20334;-84
2022/02/05 07:01:33;;;;;;;149.97;73.93;;;;;;;;;;4436798;32;20281;-90
2022/02/05 07:03:59;;;;;;;138.83;70.57;;;;;;;;;;4443108;32;20262;-86
2022/02/05 07:06:24;;;;;;;160.10;74.37;;;;;;;;;;4450085;32;20288;-85
2022/02/05 07:08:50;;;;;;;102.13;54.40;;;;;;;;;;4450589;32;20220;-88
2022/02/05 07:11:15;;;;;;;91.50;45.20;;;;;;;;;;4450673;32;20205;-84
2022/02/05 07:13:41;;;;;;;81.10;40.07;;;;;;;;;;4436602;32;20304;-90
2022/02/05 07:16:22;;;;;;;77.87;37.43;;;;;;;;;;4450547;32;20212;-88
2022/02/05 07:21:38;;;;;;;92.57;43.33;;;;;;;;;;4417890;32;20649;-86
2022/02/05 07:29:16;;;;;;;79.47;41.00;;;;;;;;;;4434508;32;20336;-85
2022/02/05 07:31:43;;;;;;;78.83;39.30;;;;;;;;;;4420411;32;20378;-85
2022/02/05 07:34:09;;;;;;;75.70;40.17;;;;;;;;;;4434548;32;20745;-87
2022/02/05 07:36:35;;;;;;;79.57;36.97;;;;;;;;;;4433415;32;20294;-85
2022/02/05 07:39:00;;;;;;;76.73;41.50;;;;;;;;;;4433660;32;20328;-87
2022/02/05 07:41:26;;;;;;;74.03;41.00;;;;;;;;;;4431847;32;20375;-85
2022/02/05 07:43:51;;;;;;;79.77;40.00;;;;;;;;;;4433575;32;20249;-84
2022/02/05 07:46:18;;;;;;;70.10;39.27;;;;;;;;;;4440837;32;20288;-83
2022/02/05 07:48:44;;;;;;;70.73;37.87;;;;;;;;;;4449503;32;20665;-80
2022/02/05 07:51:09;;;;;;;83.70;38.50;;;;;;;;;;4435132;32;20439;-84
2022/02/05 07:53:36;;;;;;;80.40;41.70;;;;;;;;;;4449059;32;20300;-81
2022/02/05 07:56:02;;;;;;;109.20;54.97;;;;;;;;;;4449379;32;20239;-83
2022/02/05 07:58:28;;;;;;;119.83;55.63;;;;;;;;;;4449573;32;20224;-86
2022/02/05 08:00:53;;;;;;;130.03;61.77;;;;;;;;;;4447526;32;20254;-90
2022/02/05 08:03:19;;;;;;;143.03;66.17;;;;;;;;;;4444607;32;20299;-82
2022/02/05 08:05:44;;;;;;;167.93;80.10;;;;;;;;;;4444896;32;20224;-86
2022/02/05 08:08:14;;;;;;;140.63;73.60;;;;;;;;;;4432083;32;20251;-85
2022/02/05 08:10:48;;;;;;;154.43;77.27;;;;;;;;;;4446260;32;20365;-87
2022/02/05 08:13:14;;;;;;;133.13;70.53;;;;;;;;;;4432766;32;20296;-86
2022/02/05 08:15:40;;;;;;;160.17;79.00;;;;;;;;;;4446989;32;20259;-85
2022/02/05 08:18:07;;;;;;;155.93;80.03;;;;;;;;;;4448045;32;20224;-84
2022/02/05 08:20:32;;;;;;;137.77;69.53;;;;;;;;;;4435424;32;20546;-87
2022/02/05 08:22:58;;;;;;;130.20;68.63;;;;;;;;;;4449822;32;20284;-86
2022/02/05 08:25:24;;;;;;;95.27;49.53;;;;;;;;;;4449840;32;20268;-86
2022/02/05 08:27:50;;;;;;;100.00;53.93;;;;;;;;;;4427429;32;20284;-85
2022/02/05 08:30:15;;;;;;;117.87;61.53;;;;;;;;;;4434206;32;20628;-87
2022/02/05 08:32:44;;;;;;;116.17;60.07;;;;;;;;;;4434096;32;20200;-86
2022/02/05 08:35:09;;;;;;;127.53;64.60;;;;;;;;;;4434267;32;20234;-86
2022/02/05 08:37:40;;;;;;;121.60;61.20;;;;;;;;;;4434152;32;20265;-86
2022/02/05 08:40:07;;;;;;;151.30;72.83;;;;;;;;;;4434296;32;20229;-86
2022/02/05 08:42:32;;;;;;;144.67;78.17;;;;;;;;;;4433921;32;20201;-88
2022/02/05 08:44:58;;;;;;;129.60;69.40;;;;;;;;;;4432921;32;20338;-89
2022/02/05 08:47:24;;;;;;;111.53;64.63;;;;;;;;;;4434599;32;20277;-88
2022/02/05 08:49:52;;;;;;;118.27;69.37;;;;;;;;;;4434054;32;20213;-87
2022/02/05 08:52:17;;;;;;;134.23;68.00;;;;;;;;;;4433621;32;20256;-87
2022/02/05 08:54:43;;;;;;;130.17;71.17;;;;;;;;;;4436022;32;20777;-85
2022/02/05 08:57:09;;;;;;;128.70;71.60;;;;;;;;;;4437317;32;20332;-87
2022/02/05 09:00:01;;;;;;;143.90;74.07;;;;;;;;;;4437015;32;20284;-87
2022/02/05 09:02:31;;;;;;;125.50;70.33;;;;;;;;;;4437108;32;20680;-88
2022/02/05 09:07:34;;;;;;;130.60;73.13;;;;;;;;;;4436921;32;20716;-87
2022/02/05 09:15:05;;;;;;;124.30;70.30;;;;;;;;;;4436865;32;20204;-88
2022/02/05 09:17:31;;;;;;;130.33;74.13;;;;;;;;;;4437343;32;20237;-87
2022/02/05 09:19:56;;;;;;;130.53;72.53;;;;;;;;;;4437094;32;20732;-88
2022/02/05 09:22:22;;;;;;;128.13;69.23;;;;;;;;;;4436873;32;20225;-88
2022/02/05 09:24:48;;;;;;;119.67;64.57;;;;;;;;;;4436769;32;20333;-86
2022/02/05 09:27:16;;;;;;;110.83;63.27;;;;;;;;;;4440643;32;20228;-86
2022/02/05 09:30:03;;;;;;;102.63;60.20;;;;;;;;;;4452076;32;20193;-87
2022/02/05 09:32:29;;;;;;;107.73;61.23;;;;;;;;;;4452581;32;20723;-85
2022/02/05 09:34:54;;;;;;;107.03;57.97;;;;;;;;;;4437540;32;20339;-87
2022/02/05 09:37:22;;;;;;;96.27;49.67;;;;;;;;;;4436297;32;20721;-87
2022/02/05 09:39:48;;;;;;;81.70;44.80;;;;;;;;;;4450556;32;20229;-84
2022/02/05 09:42:15;;;;;;;75.80;42.77;;;;;;;;;;4452107;32;20543;-87
2022/02/05 09:44:41;;;;;;;73.93;43.90;;;;;;;;;;4437974;32;20240;-84
2022/02/05 09:47:07;;;;;;;72.97;44.90;;;;;;;;;;4437730;32;20228;-85
2022/02/05 09:49:34;;;;;;;77.17;45.67;;;;;;;;;;4425294;32;20245;-86
2022/02/05 09:52:11;;;;;;;72.83;40.37;;;;;;;;;;4451372;32;20259;-88
2022/02/05 09:54:43;;;;;;;82.67;45.20;;;;;;;;;;4452065;32;20184;-85
2022/02/05 09:57:08;;;;;;;88.83;44.83;;;;;;;;;;4451580;32;20703;-83
2022/02/05 09:59:55;;;;;;;70.53;39.63;;;;;;;;;;4437562;32;20280;-86
2022/02/05 10:02:31;;;;;;;62.37;36.20;;;;;;;;;;4451592;32;20280;-87
2022/02/05 10:05:05;;;;;;;96.10;56.07;;;;;;;;;;4443693;32;20250;-88
2022/02/05 10:07:31;;;;;;;65.30;37.37;;;;;;;;;;4451232;32;20215;-86
2022/02/05 10:10:00;;;;;;;63.20;34.50;;;;;;;;;;4437176;32;20309;-87
2022/02/05 10:12:26;;;;;;;63.73;33.73;;;;;;;;;;4441722;32;20296;-88
2022/02/05 10:14:55;;;;;;;62.93;31.73;;;;;;;;;;4436024;32;20214;-87
2022/02/05 10:17:35;;;;;;;65.80;34.13;;;;;;;;;;4435397;32;20228;-87
2022/02/05 10:20:01;;;;;;;69.73;35.07;;;;;;;;;;4436855;32;20197;-86
2022/02/05 10:22:36;;;;;;;56.00;30.27;;;;;;;;;;4451150;32;20262;-87
2022/02/05 10:25:06;;;;;;;57.10;30.97;;;;;;;;;;4451236;32;20219;-88
2022/02/05 10:27:40;;;;;;;58.57;30.47;;;;;;;;;;4444602;32;20248;-86
2022/02/05 10:30:20;;;;;;;59.43;31.63;;;;;;;;;;4435781;32;20686;-91
2022/02/05 10:32:49;;;;;;;58.97;32.43;;;;;;;;;;4436313;32;20284;-87
2022/02/05 10:37:51;;;;;;;67.73;40.27;;;;;;;;;;4453151;32;20220;-82
2022/02/05 10:40:29;;;;;;;42.87;24.70;;;;;;;;;;4439241;32;20288;-85
2022/02/05 10:43:05;;;;;;;48.47;27.33;;;;;;;;;;4440350;32;20264;-82
2022/02/05 10:45:51;;;;;;;42.07;23.93;;;;;;;;;;4462055;32;20180;-84
2022/02/05 10:48:21;;;;;;;49.60;27.53;;;;;;;;;;4447169;32;20271;-84
2022/02/05 10:50:49;;;;;;;51.10;26.80;;;;;;;;;;4446421;32;20367;-82
2022/02/05 10:53:26;;;;;;;80.30;44.60;;;;;;;;;;4446950;32;20216;-83
2022/02/05 10:56:18;;;;;;;61.13;34.37;;;;;;;;;;4441005;32;20236;-84
2022/02/05 11:07:19;;;;;;;55.40;30.43;;;;;;;;;;4450473;32;20250;-86
2022/02/05 11:09:47;;;;;;;49.00;26.33;;;;;;;;;;4436351;32;20273;-85
2022/02/05 11:20:00;;;;;;;48.73;25.83;;;;;;;;;;4433957;32;20257;-86
2022/02/05 11:22:30;;;;;;;60.87;32.23;;;;;;;;;;4433263;32;20328;-88
2022/02/05 11:24:57;;;;;;;169.43;67.97;;;;;;;;;;4435079;32;20284;-85
2022/02/05 11:27:22;;;;;;;50.13;24.67;;;;;;;;;;4438870;32;20216;-87
2022/02/05 11:29:47;;;;;;;55.50;31.07;;;;;;;;;;4450078;32;20303;-87
2022/02/05 11:32:20;;;;;;;46.97;26.67;;;;;;;;;;4449862;32;20250;-86
2022/02/05 11:35:00;;;;;;;46.53;28.43;;;;;;;;;;4435887;32;20213;-86
2022/02/05 11:37:25;;;;;;;46.57;27.43;;;;;;;;;;4433551;32;20271;-87
2022/02/05 11:39:53;;;;;;;52.60;26.90;;;;;;;;;;4434344;32;20241;-86
2022/02/05 11:42:36;;;;;;;65.17;31.73;;;;;;;;;;4434176;32;20296;-88
2022/02/05 11:45:27;;;;;;;40.20;23.20;;;;;;;;;;4434176;32;20267;-87
2022/02/05 11:47:57;;;;;;;56.27;27.87;;;;;;;;;;4433800;32;20640;-86
2022/02/05 11:50:24;;;;;;;48.10;26.00;;;;;;;;;;4434232;32;20193;-86
2022/02/05 11:52:50;;;;;;;50.83;26.67;;;;;;;;;;4434103;32;20808;-84
2022/02/05 11:55:28;;;;;;;49.50;30.57;;;;;;;;;;4434211;32;20205;-86
2022/02/05 11:57:58;;;;;;;51.53;28.73;;;;;;;;;;4434619;32;20617;-83
2022/02/05 12:00:49;;;;;;;54.77;29.90;;;;;;;;;;4419809;32;20321;-87
2022/02/05 12:03:29;;;;;;;40.40;25.73;;;;;;;;;;4424021;32;20289;-83
2022/02/05 12:06:01;;;;;;;46.23;28.17;;;;;;;;;;4449391;32;20370;-87
2022/02/05 12:08:34;;;;;;;43.27;24.77;;;;;;;;;;4423528;32;20256;-87
2022/02/05 12:11:03;;;;;;;52.90;27.97;;;;;;;;;;4435537;32;20254;-84
2022/02/05 12:13:39;;;;;;;96.57;55.07;;;;;;;;;;4450298;32;20224;-89
2022/02/05 12:16:06;;;;;;;52.50;31.70;;;;;;;;;;4446925;32;20196;-86
2022/02/05 12:18:52;;;;;;;122.43;53.43;;;;;;;;;;4434322;32;20250;-88
2022/02/05 12:21:27;;;;;;;61.60;34.67;;;;;;;;;;4433693;32;20305;-86
2022/02/05 12:24:21;;;;;;;70.10;36.20;;;;;;;;;;4434442;32;20276;-88
2022/02/05 12:26:45;;;;;;;69.60;35.93;;;;;;;;;;4434115;32;20358;-87
2022/02/05 12:29:24;;;;;;;68.53;35.83;;;;;;;;;;4434605;32;20227;-87
2022/02/05 12:31:50;;;;;;;63.47;34.37;;;;;;;;;;4433941;32;20225;-87
2022/02/05 12:34:16;;;;;;;190.23;61.07;;;;;;;;;;4444143;32;20653;-86
2022/02/05 12:36:49;;;;;;;376.23;120.20;;;;;;;;;;4448487;32;20269;-85
2022/02/05 12:39:15;;;;;;;114.60;49.03;;;;;;;;;;4449515;32;20185;-86
2022/02/05 12:42:14;;;;;;;60.63;34.37;;;;;;;;;;4434675;32;20353;-86
2022/02/05 12:44:42;;;;;;;60.43;34.67;;;;;;;;;;4448926;32;20201;-86
2022/02/05 12:47:16;;;;;;;64.90;35.57;;;;;;;;;;4448772;32;20311;-88
2022/02/05 12:50:06;;;;;;;101.50;44.63;;;;;;;;;;4448983;32;20616;-88
2022/02/05 12:52:31;;;;;;;62.27;32.13;;;;;;;;;;4448535;32;20236;-86
2022/02/05 12:54:59;;;;;;;80.07;39.13;;;;;;;;;;4435291;32;20228;-87
2022/02/05 12:57:26;;;;;;;56.20;34.33;;;;;;;;;;4448616;32;20304;-87
2022/02/05 12:59:52;;;;;;;57.03;34.87;;;;;;;;;;4449132;32;20192;-86
2022/02/05 13:02:21;;;;;;;65.77;38.27;;;;;;;;;;4448927;32;20718;-84
2022/02/05 13:04:51;;;;;;;66.53;38.17;;;;;;;;;;4435981;32;20354;-86
2022/02/05 13:07:22;;;;;;;64.03;38.17;;;;;;;;;;4433582;32;20302;-87
2022/02/05 13:10:05;;;;;;;65.60;38.83;;;;;;;;;;4433873;32;20201;-85
2022/02/05 13:12:34;;;;;;;63.33;36.93;;;;;;;;;;4436255;32;20228;-87
2022/02/05 13:28:52;;;;;;;117.93;59.80;;;;;;;;;;4446119;32;20223;-87
2022/02/05 13:34:18;;;;;;;83.10;44.07;;;;;;;;;;4439790;32;20348;-87
2022/02/05 13:37:11;;;;;;;76.10;49.53;;;;;;;;;;4433589;32;20220;-85
2022/02/05 13:40:01;;;;;;;70.30;39.87;;;;;;;;;;4420391;32;20296;-85
2022/02/05 13:42:30;;;;;;;73.37;37.30;;;;;;;;;;4435653;32;20733;-86
2022/02/05 13:45:10;;;;;;;76.47;41.73;;;;;;;;;;4436182;32;20223;-84
2022/02/05 13:47:48;;;;;;;81.97;41.17;;;;;;;;;;4436549;32;20248;-87
2022/02/05 13:50:19;;;;;;;76.80;42.70;;;;;;;;;;4436296;32;20205;-86
2022/02/05 13:52:58;;;;;;;85.27;42.63;;;;;;;;;;4436218;32;20652;-87
2022/02/05 13:55:30;;;;;;;73.00;44.90;;;;;;;;;;4436141;32;20569;-86
2022/02/05 13:58:00;;;;;;;82.77;43.50;;;;;;;;;;4436127;32;20245;-86
2022/02/05 14:00:48;;;;;;;73.90;41.87;;;;;;;;;;4421646;32;20256;-86
2022/02/05 14:03:35;;;;;;;79.70;42.10;;;;;;;;;;4438619;32;20629;-82
2022/02/05 14:06:07;;;;;;;76.23;42.13;;;;;;;;;;4451257;32;20647;-83
2022/02/05 14:08:35;;;;;;;86.87;44.67;;;;;;;;;;4450872;32;20396;-83
2022/02/05 14:11:05;;;;;;;87.43;44.33;;;;;;;;;;4451293;32;20251;-88
2022/02/05 14:13:31;;;;;;;79.53;45.17;;;;;;;;;;4451213;32;20267;-86
2022/02/05 14:15:59;;;;;;;84.80;48.07;;;;;;;;;;4437635;32;20251;-87
2022/02/05 14:18:26;;;;;;;80.17;45.13;;;;;;;;;;4437953;32;20228;-85
2022/02/05 14:21:01;;;;;;;84.10;46.93;;;;;;;;;;4434289;32;20830;-86
2022/02/05 14:23:29;;;;;;;91.77;51.43;;;;;;;;;;4435932;32;20254;-86
2022/02/05 14:26:08;;;;;;;109.87;62.33;;;;;;;;;;4421395;32;20245;-86
2022/02/05 14:28:49;;;;;;;141.13;82.20;;;;;;;;;;4435702;32;20549;-85
2022/02/05 14:31:30;;;;;;;121.23;67.57;;;;;;;;;;4435299;32;20351;-87
2022/02/05 14:41:52;;;;;;;94.57;48.13;;;;;;;;;;4449710;32;20466;-85
2022/02/05 14:44:18;;;;;;;83.07;47.40;;;;;;;;;;4450025;32;20603;-87
2022/02/05 14:46:43;;;;;;;106.00;50.63;;;;;;;;;;4451527;32;20606;-87
2022/02/05 14:49:09;;;;;;;85.07;45.07;;;;;;;;;;4436593;32;20296;-86
2022/02/05 14:51:35;;;;;;;99.67;49.63;;;;;;;;;;4450871;32;20233;-87
2022/02/05 14:54:00;;;;;;;115.63;57.17;;;;;;;;;;4436967;32;20290;-86
2022/02/05 14:56:27;;;;;;;110.60;57.27;;;;;;;;;;4436431;32;20253;-87
2022/02/05 14:58:53;;;;;;;100.00;52.77;;;;;;;;;;4450669;32;20287;-87
2022/02/05 15:01:21;;;;;;;84.07;50.27;;;;;;;;;;4450412;32;20229;-86
2022/02/05 15:03:50;;;;;;;97.97;53.23;;;;;;;;;;4450728;32;20204;-85
2022/02/05 15:06:21;;;;;;;103.47;55.27;;;;;;;;;;4450303;32;20255;-88
2022/02/05 15:08:48;;;;;;;101.60;58.17;;;;;;;;;;4450925;32;20256;-86
2022/02/05 15:11:15;;;;;;;113.93;66.87;;;;;;;;;;4450970;32;20342;-88
2022/02/05 15:13:41;;;;;;;109.70;63.30;;;;;;;;;;4451369;32;20636;-86
2022/02/05 15:16:14;;;;;;;119.17;63.80;;;;;;;;;;4450659;32;20193;-88
2022/02/05 15:18:41;;;;;;;113.20;65.47;;;;;;;;;;4450448;32;20192;-86
2022/02/05 15:21:08;;;;;;;123.07;67.30;;;;;;;;;;4450140;32;20204;-86
2022/02/05 15:23:34;;;;;;;131.80;72.50;;;;;;;;;;4436220;32;20600;-87
2022/02/05 15:26:02;;;;;;;145.27;81.13;;;;;;;;;;4435626;32;20643;-88
2022/02/05 15:28:30;;;;;;;144.90;81.90;;;;;;;;;;4437942;32;20302;-87
2022/02/05 15:30:55;;;;;;;143.10;82.27;;;;;;;;;;4434201;32;20365;-85
2022/02/05 15:33:21;;;;;;;165.70;94.67;;;;;;;;;;4439172;32;20329;-87
2022/02/05 15:35:53;;;;;;;172.67;92.67;;;;;;;;;;4450065;32;20205;-87
2022/02/05 15:38:27;;;;;;;183.87;100.57;;;;;;;;;;4450141;32;20788;-85
2022/02/05 15:43:52;;;;;;;179.50;97.90;;;;;;;;;;4450420;32;20364;-83
2022/02/05 15:46:18;;;;;;;160.50;91.17;;;;;;;;;;4450223;32;20699;-87
2022/02/05 15:48:44;;;;;;;168.83;86.73;;;;;;;;;;4437448;32;20205;-87
2022/02/05 15:51:11;;;;;;;157.73;82.83;;;;;;;;;;4439041;32;20228;-83
2022/02/05 15:53:44;;;;;;;152.63;83.20;;;;;;;;;;4463417;32;20210;-83
2022/02/05 15:56:21;;;;;;;124.97;72.63;;;;;;;;;;4462367;32;20149;-84
2022/02/05 15:58:48;;;;;;;132.40;72.43;;;;;;;;;;4450250;32;20335;-82
2022/02/05 16:01:16;;;;;;;127.97;68.27;;;;;;;;;;4460935;32;20236;-82
2022/02/05 16:03:42;;;;;;;120.80;68.00;;;;;;;;;;4442195;32;20239;-83
2022/02/05 16:06:08;;;;;;;150.90;81.97;;;;;;;;;;4447657;32;20205;-83
2022/02/05 16:08:33;;;;;;;160.07;85.50;;;;;;;;;;4446456;32;20182;-83
2022/02/05 16:10:59;;;;;;;170.23;88.23;;;;;;;;;;4442893;32;20217;-85
2022/02/05 16:13:24;;;;;;;84.27;48.10;;;;;;;;;;4437709;32;20704;-79
2022/02/05 16:15:49;;;;;;;215.97;112.87;;;;;;;;;;4434352;32;20233;-84
2022/02/05 16:18:15;;;;;;;201.90;109.80;;;;;;;;;;4434336;32;20221;-84
2022/02/05 16:20:40;;;;;;;210.17;109.30;;;;;;;;;;4441444;32;20232;-84
2022/02/05 16:23:07;;;;;;;193.17;95.50;;;;;;;;;;4440149;32;20228;-83
2022/02/05 16:25:32;;;;;;;152.13;77.70;;;;;;;;;;4434236;32;20613;-81
2022/02/05 16:27:58;;;;;;;159.10;79.63;;;;;;;;;;4434231;32;20300;-85
2022/02/05 16:30:24;;;;;;;169.83;87.60;;;;;;;;;;4433070;32;20311;-82
2022/02/05 16:32:52;;;;;;;203.77;101.93;;;;;;;;;;4435103;32;20228;-83
2022/02/05 16:35:17;;;;;;;310.70;142.67;;;;;;;;;;4434497;32;20629;-83
2022/02/05 16:37:43;;;;;;;213.43;112.53;;;;;;;;;;4449170;32;20278;-83
2022/02/05 16:40:12;;;;;;;218.73;113.97;;;;;;;;;;4449104;32;20377;-82
2022/02/05 16:42:42;;;;;;;206.40;108.33;;;;;;;;;;4435379;32;20236;-82
2022/02/05 16:45:09;;;;;;;208.70;106.03;;;;;;;;;;4449764;32;20235;-81
2022/02/05 16:47:36;;;;;;;240.23;120.83;;;;;;;;;;4435246;32;20291;-83
2022/02/05 16:50:02;;;;;;;170.03;90.47;;;;;;;;;;4435713;32;20208;-82
2022/02/05 16:52:30;;;;;;;175.80;92.00;;;;;;;;;;4449181;32;20250;-82
2022/02/05 16:54:56;;;;;;;178.80;94.43;;;;;;;;;;4435273;32;20220;-82
2022/02/05 16:57:22;;;;;;;165.33;84.50;;;;;;;;;;4448587;32;20270;-81
2022/02/05 16:59:47;;;;;;;184.07;93.27;;;;;;;;;;4449215;32;20256;-84
2022/02/05 17:02:13;;;;;;;184.27;91.77;;;;;;;;;;4449214;32;20259;-83
2022/02/05 17:04:38;;;;;;;175.13;92.97;;;;;;;;;;4436910;32;20318;-84
2022/02/05 17:07:04;;;;;;;166.17;85.57;;;;;;;;;;4433477;32;20530;-84
2022/02/05 17:09:34;;;;;;;166.37;85.67;;;;;;;;;;4433687;32;20265;-85
2022/02/05 17:12:04;;;;;;;162.20;83.60;;;;;;;;;;4433512;32;20252;-83
2022/02/05 17:14:37;;;;;;;252.70;128.33;;;;;;;;;;4434437;32;20228;-83
2022/02/05 17:17:02;;;;;;;269.83;137.53;;;;;;;;;;4436751;32;20255;-85
2022/02/05 17:19:28;;;;;;;257.97;131.87;;;;;;;;;;4436685;32;20287;-85
2022/02/05 17:21:55;;;;;;;233.00;125.07;;;;;;;;;;4438248;32;20724;-83
2022/02/05 17:24:20;;;;;;;244.33;123.77;;;;;;;;;;4452051;32;20209;-84
2022/02/05 17:26:46;;;;;;;263.53;135.40;;;;;;;;;;4436814;32;20267;-84